Time;durP1;ratioP1;P1;durP2;ratioP2;P2;SDS_P1;SDS_P2;PMS_P1;PMS_P2;Temp;Humidity;BMP_temperature;BMP_pressure;BME280_temperature;BME280_humidity;BME280_pressure;Samples;Min_cycle;Max_cycle;Signal;HPM_P1;HPM_P2
2021/07/20 00:01:39;;;;;;;10.48;4.45;;;21.20;1.00;;;;;;5012905;28;20025;-85
2021/07/20 00:04:04;;;;;;;8.98;4.60;;;21.20;1.00;;;;;;5013919;28;20025;-85
2021/07/20 00:06:31;;;;;;;8.25;4.28;;;21.20;1.00;;;;;;5014185;28;20115;-85
2021/07/20 00:08:57;;;;;;;6.93;4.40;;;21.10;1.00;;;;;;5014232;28;20584;-84
2021/07/20 00:11:23;;;;;;;8.57;4.47;;;20.90;1.00;;;;;;5014491;28;20030;-85
2021/07/20 00:13:49;;;;;;;8.85;4.85;;;20.90;1.00;;;;;;5014008;28;20035;-84
2021/07/20 00:16:15;;;;;;;8.05;4.55;;;20.80;1.00;;;;;;5013697;28;20040;-85
2021/07/20 00:18:41;;;;;;;7.53;4.28;;;20.90;1.00;;;;;;5029415;28;20084;-85
2021/07/20 00:21:08;;;;;;;11.43;4.55;;;20.90;1.00;;;;;;5013904;28;20030;-85
2021/07/20 00:23:35;;;;;;;8.60;4.30;;;20.80;1.00;;;;;;5013976;28;20080;-85
2021/07/20 00:26:02;;;;;;;6.90;4.13;;;20.70;1.00;;;;;;5013674;28;20537;-85
2021/07/20 00:28:27;;;;;;;7.80;4.00;;;20.70;1.00;;;;;;5014056;28;20022;-85
2021/07/20 00:30:53;;;;;;;9.48;4.55;;;20.70;1.00;;;;;;5014220;28;20080;-85
2021/07/20 00:33:19;;;;;;;9.32;4.63;;;20.60;1.00;;;;;;5013533;28;20120;-85
2021/07/20 00:35:45;;;;;;;12.02;4.40;;;20.70;1.00;;;;;;5014107;28;20026;-85
2021/07/20 00:38:15;;;;;;;9.25;4.60;;;20.60;1.00;;;;;;5012968;28;20076;-85
2021/07/20 00:40:42;;;;;;;7.18;4.18;;;20.60;1.00;;;;;;5013708;28;20466;-85
2021/07/20 00:43:08;;;;;;;8.82;4.68;;;20.50;1.00;;;;;;5028681;28;20382;-85
2021/07/20 00:45:34;;;;;;;6.35;4.10;;;20.50;1.00;;;;;;5013727;28;20026;-85
2021/07/20 00:48:00;;;;;;;10.68;4.50;;;20.60;1.00;;;;;;5013539;28;20029;-85
2021/07/20 00:50:29;;;;;;;8.68;4.43;;;20.60;1.00;;;;;;5012526;28;20095;-85
2021/07/20 00:52:55;;;;;;;7.82;4.43;;;20.50;1.00;;;;;;5013359;28;20022;-85
2021/07/20 00:55:21;;;;;;;8.13;4.40;;;20.50;1.00;;;;;;5012024;28;20022;-86
2021/07/20 00:57:48;;;;;;;10.57;5.07;;;20.50;1.00;;;;;;5013438;28;20030;-85
2021/07/20 01:00:17;;;;;;;12.52;4.93;;;20.40;1.00;;;;;;5013069;28;20030;-85
2021/07/20 01:02:43;;;;;;;6.90;4.35;;;20.20;1.00;;;;;;5013734;28;20026;-85
2021/07/20 01:05:18;;;;;;;15.43;4.20;;;20.20;1.00;;;;;;5012605;28;20040;-85
2021/07/20 01:07:45;;;;;;;9.40;4.80;;;20.30;1.00;;;;;;5012880;28;20037;-85
2021/07/20 01:10:11;;;;;;;7.78;4.00;;;20.20;1.00;;;;;;5013003;28;20050;-85
2021/07/20 01:12:40;;;;;;;7.68;4.55;;;20.20;1.00;;;;;;5012160;28;20432;-84
2021/07/20 01:15:08;;;;;;;9.70;4.63;;;20.20;1.00;;;;;;5012926;28;20445;-85
2021/07/20 01:17:38;;;;;;;6.35;4.60;;;20.20;1.00;;;;;;5013344;28;20033;-85
2021/07/20 01:20:16;;;;;;;5.35;4.20;;;20.20;1.00;;;;;;5012643;28;20037;-84
2021/07/20 01:23:18;;;;;;;8.93;4.70;;;20.20;1.00;;;;;;5012679;28;20065;-85
2021/07/20 01:25:45;;;;;;;9.95;4.50;;;20.30;1.00;;;;;;5008763;28;20074;-85
2021/07/20 01:28:17;;;;;;;9.23;4.53;;;20.20;1.00;;;;;;5012920;28;20113;-85
2021/07/20 01:30:49;;;;;;;9.23;4.25;;;20.20;1.00;;;;;;5013034;28;20127;-85
2021/07/20 01:33:17;;;;;;;8.25;4.50;;;20.10;1.00;;;;;;5012121;28;20084;-85
2021/07/20 01:35:46;;;;;;;6.75;4.65;;;20.10;1.00;;;;;;5013018;28;20053;-84
2021/07/20 01:38:13;;;;;;;8.98;4.97;;;19.90;1.00;;;;;;5027901;28;20030;-85
2021/07/20 01:40:40;;;;;;;6.28;4.43;;;20.00;1.00;;;;;;5012716;28;20021;-85
2021/07/20 01:43:06;;;;;;;7.93;4.35;;;20.00;1.00;;;;;;5012591;28;20033;-85
2021/07/20 01:45:35;;;;;;;8.20;4.65;;;20.00;1.00;;;;;;5027358;28;20425;-85
2021/07/20 01:48:03;;;;;;;13.68;4.80;;;19.90;1.00;;;;;;5012238;28;20109;-85
2021/07/20 01:50:30;;;;;;;10.55;4.32;;;19.70;1.00;;;;;;5011863;28;20026;-85
2021/07/20 01:52:56;;;;;;;7.03;4.72;;;19.70;1.00;;;;;;5012747;28;20057;-84
2021/07/20 01:55:26;;;;;;;7.68;4.68;;;19.70;1.00;;;;;;5012502;28;20041;-85
2021/07/20 01:57:53;;;;;;;7.53;4.50;;;19.70;1.00;;;;;;5012067;28;20022;-85
2021/07/20 02:00:20;;;;;;;9.98;4.88;;;19.70;1.00;;;;;;5011797;28;20030;-85
2021/07/20 02:03:14;;;;;;;7.53;4.60;;;19.70;1.00;;;;;;5011029;28;20170;-84
2021/07/20 02:08:29;;;;;;;8.45;4.78;;;19.60;1.00;;;;;;5011963;28;20045;-85
2021/07/20 02:11:06;;;;;;;9.40;4.93;;;19.70;1.00;;;;;;5012117;28;20030;-85
2021/07/20 02:13:41;;;;;;;7.80;4.70;;;19.60;1.00;;;;;;5011854;28;20445;-85
2021/07/20 02:16:10;;;;;;;7.32;4.82;;;19.60;1.00;;;;;;5011926;28;20025;-85
2021/07/20 02:18:37;;;;;;;8.88;4.65;;;19.60;1.00;;;;;;5011673;28;20030;-84
2021/07/20 02:21:07;;;;;;;9.27;4.50;;;19.60;1.00;;;;;;5011117;28;20036;-85
2021/07/20 02:23:34;;;;;;;7.95;4.80;;;19.50;1.00;;;;;;5012711;28;20114;-85
2021/07/20 02:26:00;;;;;;;5.97;4.07;;;19.40;1.00;;;;;;5011582;28;20033;-85
2021/07/20 02:28:27;;;;;;;6.85;5.32;;;19.50;1.00;;;;;;5011699;28;20026;-85
2021/07/20 02:30:54;;;;;;;9.80;4.38;;;19.50;1.00;;;;;;5011435;28;20026;-85
2021/07/20 02:33:21;;;;;;;7.35;4.35;;;19.50;1.00;;;;;;5012272;28;20033;-85
2021/07/20 02:35:50;;;;;;;5.82;4.70;;;19.50;1.00;;;;;;5012403;28;20026;-85
2021/07/20 02:38:16;;;;;;;7.78;4.63;;;19.50;1.00;;;;;;5011571;28;20046;-85
2021/07/20 02:40:43;;;;;;;7.93;4.63;;;19.40;1.00;;;;;;5012075;28;20029;-85
2021/07/20 02:43:09;;;;;;;9.77;4.80;;;19.40;1.00;;;;;;5011576;28;20049;-85
2021/07/20 02:45:37;;;;;;;8.40;4.60;;;19.40;1.00;;;;;;5011104;28;20042;-84
2021/07/20 02:48:03;;;;;;;8.65;4.65;;;19.40;1.00;;;;;;5010449;28;20061;-85
2021/07/20 02:50:30;;;;;;;7.43;4.38;;;19.40;1.00;;;;;;5012582;28;20113;-85
2021/07/20 02:52:56;;;;;;;8.60;4.57;;;19.30;1.00;;;;;;5011857;28;20076;-85
2021/07/20 02:55:22;;;;;;;5.72;4.43;;;19.20;1.00;;;;;;5011335;28;20040;-84
2021/07/20 02:57:49;;;;;;;10.35;4.80;;;19.20;1.00;;;;;;5011842;28;20022;-85
2021/07/20 03:00:16;;;;;;;9.05;4.63;;;19.20;1.00;;;;;;5011742;28;20036;-85
2021/07/20 03:02:45;;;;;;;5.78;4.50;;;19.10;1.00;;;;;;5010696;28;20022;-85
2021/07/20 03:05:14;;;;;;;8.15;4.50;;;19.00;1.00;;;;;;5011547;28;20033;-85
2021/07/20 03:07:48;;;;;;;7.88;4.93;;;18.90;1.00;;;;;;5010121;28;20456;-84
2021/07/20 03:10:15;;;;;;;9.57;5.07;;;19.20;1.00;;;;;;5011376;28;20028;-85
2021/07/20 03:12:45;;;;;;;8.30;5.05;;;19.00;1.00;;;;;;5011878;28;20108;-85
2021/07/20 03:15:12;;;;;;;10.32;4.70;;;19.00;1.00;;;;;;5013046;28;20022;-85
2021/07/20 03:17:38;;;;;;;8.90;4.38;;;19.00;1.00;;;;;;5015734;28;20092;-85
2021/07/20 03:20:07;;;;;;;9.82;4.90;;;19.10;1.00;;;;;;5015107;28;20029;-84
2021/07/20 03:22:34;;;;;;;6.38;4.95;;;19.10;1.00;;;;;;5014948;28;20053;-85
2021/07/20 03:25:03;;;;;;;10.43;5.30;;;19.00;1.00;;;;;;5014577;28;20564;-85
2021/07/20 03:27:31;;;;;;;9.77;4.57;;;19.00;1.00;;;;;;5030001;28;20034;-85
2021/07/20 03:29:59;;;;;;;11.77;5.00;;;18.90;1.00;;;;;;5015605;28;20018;-85
2021/07/20 03:32:26;;;;;;;8.88;4.90;;;18.80;1.00;;;;;;5014841;28;20374;-85
2021/07/20 03:34:53;;;;;;;8.52;4.57;;;18.80;1.00;;;;;;5014667;28;20065;-85
2021/07/20 03:37:21;;;;;;;9.63;5.85;;;18.80;1.00;;;;;;5014673;28;20044;-85
2021/07/20 03:39:46;;;;;;;8.10;4.78;;;18.80;1.00;;;;;;5014941;28;20084;-85
2021/07/20 03:42:13;;;;;;;12.40;5.20;;;19.00;1.00;;;;;;5014761;28;20030;-85
2021/07/20 03:44:40;;;;;;;10.00;5.50;;;18.80;1.00;;;;;;5014654;28;20453;-85
2021/07/20 03:47:06;;;;;;;12.88;5.13;;;18.80;1.00;;;;;;5014217;28;20099;-84
2021/07/20 03:49:34;;;;;;;7.97;4.93;;;18.80;1.00;;;;;;5014486;28;20203;-85
2021/07/20 03:52:01;;;;;;;9.02;4.70;;;18.80;1.00;;;;;;5014840;28;20026;-85
2021/07/20 03:54:30;;;;;;;7.25;4.65;;;18.80;1.00;;;;;;5014712;28;20022;-84
2021/07/20 03:56:58;;;;;;;10.95;5.13;;;18.80;1.00;;;;;;5014677;28;20026;-84
2021/07/20 03:59:26;;;;;;;12.00;5.45;;;18.80;1.00;;;;;;5014926;28;20022;-85
2021/07/20 04:01:54;;;;;;;6.97;4.53;;;18.70;1.00;;;;;;5014042;28;20080;-85
2021/07/20 04:04:21;;;;;;;10.32;5.40;;;18.80;1.00;;;;;;5014120;28;20025;-85
2021/07/20 04:06:47;;;;;;;12.55;5.50;;;18.80;1.00;;;;;;5014191;28;20052;-85
2021/07/20 04:09:14;;;;;;;9.50;5.35;;;18.50;1.00;;;;;;5014427;28;20536;-83
2021/07/20 04:11:41;;;;;;;12.65;5.03;;;18.50;1.00;;;;;;5014436;28;20033;-85
2021/07/20 04:14:10;;;;;;;9.73;5.10;;;18.40;1.00;;;;;;5013927;28;20018;-85
2021/07/20 04:16:37;;;;;;;8.15;4.95;;;18.50;1.00;;;;;;5014301;28;20022;-85
2021/07/20 04:19:03;;;;;;;8.95;5.53;;;18.50;1.00;;;;;;5014102;28;20030;-85
2021/07/20 04:21:29;;;;;;;11.45;5.43;;;18.50;1.00;;;;;;5013790;28;20030;-85
2021/07/20 04:23:55;;;;;;;11.50;5.60;;;18.60;1.00;;;;;;5014480;28;20398;-85
2021/07/20 04:26:22;;;;;;;9.18;5.10;;;18.60;1.00;;;;;;5013610;28;20041;-85
2021/07/20 04:28:48;;;;;;;7.28;4.90;;;18.70;1.00;;;;;;5013455;28;20072;-85
2021/07/20 04:31:18;;;;;;;8.55;4.90;;;18.70;1.00;;;;;;5013973;28;20036;-85
2021/07/20 04:33:46;;;;;;;7.28;5.20;;;18.70;1.00;;;;;;5013458;28;20022;-85
2021/07/20 04:36:14;;;;;;;11.93;5.45;;;18.60;1.00;;;;;;5014029;28;20022;-85
2021/07/20 04:38:42;;;;;;;6.75;5.07;;;18.70;1.00;;;;;;5014336;28;20022;-84
2021/07/20 04:41:07;;;;;;;9.25;5.93;;;18.70;1.00;;;;;;5013333;28;20037;-85
2021/07/20 04:43:34;;;;;;;11.20;5.57;;;18.60;1.00;;;;;;5013268;28;20138;-85
2021/07/20 04:46:00;;;;;;;9.85;5.65;;;18.60;1.00;;;;;;5013316;28;20038;-85
2021/07/20 04:48:26;;;;;;;12.23;5.40;;;18.60;1.00;;;;;;5028808;28;20409;-86
2021/07/20 04:50:54;;;;;;;13.32;5.72;;;18.60;1.00;;;;;;5009656;28;20034;-85
2021/07/20 04:53:21;;;;;;;9.50;5.10;;;18.70;1.00;;;;;;5013866;28;20482;-85
2021/07/20 04:55:50;;;;;;;9.18;5.63;;;19.00;1.00;;;;;;5013049;28;20034;-84
2021/07/20 04:58:16;;;;;;;9.90;5.22;;;18.80;1.00;;;;;;5012820;28;20032;-85
2021/07/20 05:00:50;;;;;;;16.10;5.28;;;18.80;1.00;;;;;;5013935;28;20493;-85
2021/07/20 05:03:18;;;;;;;8.43;5.18;;;18.70;1.00;;;;;;5013232;28;20045;-85
2021/07/20 05:05:45;;;;;;;8.15;4.65;;;18.70;1.00;;;;;;5013382;28;20445;-85
2021/07/20 05:08:16;;;;;;;10.90;5.72;;;18.90;1.00;;;;;;5013009;28;20409;-85
2021/07/20 05:10:48;;;;;;;9.93;6.50;;;18.80;1.00;;;;;;5012153;28;20093;-85
2021/07/20 05:13:19;;;;;;;10.95;5.75;;;18.70;1.00;;;;;;5013292;28;20042;-85
2021/07/20 05:15:56;;;;;;;11.52;5.65;;;18.80;1.00;;;;;;5012959;28;20021;-85
2021/07/20 05:18:22;;;;;;;10.80;5.43;;;18.90;1.00;;;;;;5012811;28;20030;-84
2021/07/20 05:20:51;;;;;;;12.80;5.20;;;19.00;1.00;;;;;;5012990;28;20025;-85
2021/07/20 05:23:19;;;;;;;13.70;5.28;;;19.00;1.00;;;;;;5012622;28;20022;-85
2021/07/20 05:25:51;;;;;;;10.30;5.30;;;19.10;1.00;;;;;;5012331;28;20041;-89
2021/07/20 05:28:18;;;;;;;9.73;5.32;;;19.20;1.00;;;;;;5013394;28;20482;-93
2021/07/20 05:30:45;;;;;;;9.07;5.32;;;19.10;1.00;;;;;;5013031;28;20498;-89
2021/07/20 05:33:12;;;;;;;11.05;6.20;;;19.10;1.00;;;;;;5013715;28;20137;-93
2021/07/20 05:35:38;;;;;;;11.38;5.35;;;19.10;1.00;;;;;;5013619;28;20553;-91
2021/07/20 05:38:04;;;;;;;10.95;5.20;;;19.20;1.00;;;;;;5012222;28;20482;-91
2021/07/20 05:40:30;;;;;;;9.93;5.10;;;19.30;1.00;;;;;;5012762;28;20022;-90
2021/07/20 05:42:57;;;;;;;11.18;5.30;;;19.30;1.00;;;;;;5012717;28;20022;-90
2021/07/20 05:45:24;;;;;;;7.68;5.18;;;19.20;1.00;;;;;;5012644;28;20025;-89
2021/07/20 05:47:50;;;;;;;10.40;5.53;;;19.20;1.00;;;;;;5012960;28;20034;-89
2021/07/20 05:50:18;;;;;;;9.95;5.57;;;19.40;1.00;;;;;;5012432;28;20398;-88
2021/07/20 05:52:49;;;;;;;12.85;5.82;;;19.50;1.00;;;;;;5010906;28;20030;-89
2021/07/20 05:55:17;;;;;;;13.65;5.78;;;19.50;1.00;;;;;;5011770;28;20024;-89
2021/07/20 05:57:48;;;;;;;11.20;5.70;;;19.60;1.00;;;;;;5012764;28;20037;-89
2021/07/20 06:00:19;;;;;;;8.88;5.45;;;19.60;1.00;;;;;;5012715;28;20103;-88
2021/07/20 06:02:46;;;;;;;11.40;6.20;;;19.70;1.00;;;;;;5012856;28;20108;-88
2021/07/20 06:05:16;;;;;;;13.98;6.10;;;19.80;1.00;;;;;;5010749;28;20474;-89
2021/07/20 06:07:43;;;;;;;13.32;5.50;;;19.80;1.00;;;;;;5012601;28;20030;-89
2021/07/20 06:10:10;;;;;;;12.48;6.47;;;19.90;1.00;;;;;;5011782;28;20121;-91
2021/07/20 06:12:36;;;;;;;14.27;7.65;;;20.10;1.00;;;;;;5012649;28;20030;-90
2021/07/20 06:15:04;;;;;;;10.43;6.13;;;20.10;1.00;;;;;;5012424;28;20026;-89
2021/07/20 06:17:30;;;;;;;12.73;6.57;;;20.10;1.00;;;;;;5011527;28;20029;-89
2021/07/20 06:19:56;;;;;;;12.77;6.80;;;20.00;1.00;;;;;;5011810;28;20108;-86
2021/07/20 06:22:25;;;;;;;14.88;6.97;;;20.00;1.00;;;;;;5011066;28;20029;-86
2021/07/20 06:24:52;;;;;;;9.00;6.43;;;19.90;1.00;;;;;;5011405;28;20159;-86
2021/07/20 06:27:19;;;;;;;11.90;6.28;;;19.90;1.00;;;;;;5010727;28;20410;-86
2021/07/20 06:29:51;;;;;;;18.75;6.95;;;20.00;1.00;;;;;;5011353;28;20033;-87
2021/07/20 06:32:18;;;;;;;13.02;6.35;;;20.10;1.00;;;;;;5011688;28;20033;-88
2021/07/20 06:34:44;;;;;;;11.25;6.20;;;20.10;1.00;;;;;;5011414;28;20429;-87
2021/07/20 06:37:10;;;;;;;8.60;6.03;;;20.20;1.00;;;;;;5011030;28;20091;-86
2021/07/20 06:39:37;;;;;;;13.15;6.30;;;20.20;1.00;;;;;;5011376;28;20484;-85
2021/07/20 06:42:04;;;;;;;10.10;6.38;;;20.30;1.00;;;;;;5011533;28;20061;-86
2021/07/20 06:44:31;;;;;;;11.52;6.20;;;20.30;1.00;;;;;;5011338;28;20037;-85
2021/07/20 06:46:59;;;;;;;9.52;6.72;;;20.20;1.00;;;;;;5026265;28;20120;-86
2021/07/20 06:49:26;;;;;;;10.32;6.45;;;20.40;1.00;;;;;;5013851;28;20041;-86
2021/07/20 06:51:52;;;;;;;12.15;6.70;;;20.40;1.00;;;;;;5031202;28;20437;-85
2021/07/20 06:54:18;;;;;;;10.77;6.10;;;20.60;1.00;;;;;;5015440;28;20471;-85
2021/07/20 06:56:52;;;;;;;11.98;5.95;;;20.70;1.00;;;;;;5015963;28;20496;-85
2021/07/20 06:59:19;;;;;;;10.80;6.80;;;20.80;1.00;;;;;;5015221;28;20093;-86
2021/07/20 07:01:46;;;;;;;14.50;6.85;;;20.80;1.00;;;;;;5015030;28;20092;-86
2021/07/20 07:04:15;;;;;;;10.88;6.40;;;20.70;1.00;;;;;;5015268;28;20494;-86
2021/07/20 07:06:46;;;;;;;10.05;6.07;;;20.80;1.00;;;;;;5015036;28;20045;-86
2021/07/20 07:09:13;;;;;;;10.10;5.82;;;20.90;1.00;;;;;;5015005;28;20101;-86
2021/07/20 07:11:39;;;;;;;9.52;6.03;;;21.00;1.00;;;;;;5015737;28;20509;-86
2021/07/20 07:14:09;;;;;;;15.07;6.60;;;21.20;1.00;;;;;;5014833;28;20029;-85
2021/07/20 07:16:37;;;;;;;11.63;6.13;;;21.20;1.00;;;;;;5014888;28;20041;-86
2021/07/20 07:19:03;;;;;;;12.00;6.57;;;21.30;1.00;;;;;;5014834;28;20026;-87
2021/07/20 07:21:31;;;;;;;13.15;6.30;;;21.30;1.00;;;;;;5015475;28;20036;-89
2021/07/20 07:23:58;;;;;;;9.68;6.80;;;21.40;1.00;;;;;;5015652;28;20042;-88
2021/07/20 07:26:24;;;;;;;10.05;6.25;;;21.40;1.00;;;;;;5015110;28;20075;-88
2021/07/20 07:28:52;;;;;;;8.50;5.93;;;21.50;1.00;;;;;;5014982;28;20032;-89
2021/07/20 07:31:19;;;;;;;14.80;6.85;;;21.50;1.00;;;;;;5014835;28;20034;-88
2021/07/20 07:33:46;;;;;;;15.52;7.28;;;21.60;1.00;;;;;;5015345;28;20397;-89
2021/07/20 07:36:14;;;;;;;12.05;6.50;;;21.60;1.00;;;;;;5014782;28;20441;-89
2021/07/20 07:38:45;;;;;;;13.05;6.65;;;21.60;1.00;;;;;;5014099;28;20076;-89
2021/07/20 07:41:12;;;;;;;11.57;7.15;;;21.60;1.00;;;;;;5013653;28;20028;-91
2021/07/20 07:43:39;;;;;;;11.85;6.57;;;21.60;1.00;;;;;;5013483;28;20492;-88
2021/07/20 07:46:06;;;;;;;12.02;6.85;;;21.60;1.00;;;;;;5015180;28;20560;-89
2021/07/20 07:48:36;;;;;;;13.43;7.10;;;21.80;1.00;;;;;;5030005;28;22272;-89
2021/07/20 07:51:05;;;;;;;18.90;7.40;;;21.90;1.00;;;;;;5014535;28;20018;-89
2021/07/20 07:53:30;;;;;;;10.77;7.43;;;22.00;1.00;;;;;;5014594;28;20030;-89
2021/07/20 07:55:56;;;;;;;13.48;8.43;;;22.00;1.00;;;;;;5013225;28;20048;-89
2021/07/20 07:58:28;;;;;;;14.88;6.40;;;22.00;99.90;;;;;;5030140;28;20034;-89
2021/07/20 08:00:55;;;;;;;12.30;6.50;;;22.00;1.00;;;;;;5013731;28;20034;-89
2021/07/20 08:03:25;;;;;;;14.82;6.78;;;22.20;99.90;;;;;;5014359;28;20033;-89
2021/07/20 08:05:51;;;;;;;19.38;7.57;;;22.30;99.90;;;;;;5014457;28;20030;-89
2021/07/20 08:08:18;;;;;;;11.98;6.50;;;22.30;99.90;;;;;;5013104;28;20052;-88
2021/07/20 08:10:46;;;;;;;13.02;6.85;;;22.20;99.90;;;;;;5014855;28;20505;-89
2021/07/20 08:13:14;;;;;;;16.15;6.53;;;22.30;99.90;;;;;;5013103;28;20105;-89
2021/07/20 08:15:40;;;;;;;11.88;7.35;;;22.40;99.90;;;;;;5014413;28;20026;-89
2021/07/20 08:18:07;;;;;;;10.50;6.55;;;22.30;99.90;;;;;;5014557;28;20033;-89
2021/07/20 08:20:34;;;;;;;14.65;7.13;;;22.40;99.90;;;;;;5014205;28;20022;-88
2021/07/20 08:22:59;;;;;;;9.75;6.72;;;22.50;99.90;;;;;;5013773;28;20034;-86
2021/07/20 08:25:29;;;;;;;17.45;7.18;;;22.50;99.90;;;;;;5013635;28;20092;-86
2021/07/20 08:28:20;;;;;;;12.73;6.43;;;22.60;99.90;;;;;;5013985;28;20030;-86
2021/07/20 08:30:49;;;;;;;11.50;6.55;;;22.60;99.90;;;;;;5000866;28;20081;-86
2021/07/20 08:33:22;;;;;;;15.13;7.95;;;22.70;99.90;;;;;;5013744;28;20386;-86
2021/07/20 08:35:50;;;;;;;12.23;6.63;;;22.80;99.90;;;;;;5014351;28;20080;-86
2021/07/20 08:38:19;;;;;;;13.10;6.90;;;22.90;1.00;;;;;;5013400;28;20062;-86
2021/07/20 08:41:03;;;;;;;10.38;6.60;;;22.90;99.90;;;;;;5013500;28;20030;-85
2021/07/20 08:43:38;;;;;;;13.13;6.97;;;23.00;99.90;;;;;;5013479;28;20088;-86
2021/07/20 08:46:08;;;;;;;11.80;6.70;;;23.20;99.90;;;;;;5012954;28;20037;-87
2021/07/20 08:48:52;;;;;;;12.88;6.50;;;23.40;99.90;;;;;;5028468;28;20057;-86
2021/07/20 08:51:55;;;;;;;13.88;6.60;;;23.50;99.90;;;;;;5013349;28;20097;-86
2021/07/20 08:54:52;;;;;;;10.05;5.90;;;23.50;99.90;;;;;;5013018;28;20048;-87
2021/07/20 08:57:39;;;;;;;11.57;6.50;;;23.60;99.90;;;;;;5012266;28;20045;-86
2021/07/20 09:00:10;;;;;;;11.95;6.72;;;23.70;99.90;;;;;;5010571;28;20081;-87
2021/07/20 09:02:44;;;;;;;9.95;6.13;;;23.90;99.90;;;;;;5012257;28;20054;-86
2021/07/20 09:05:17;;;;;;;10.95;6.30;;;23.80;99.90;;;;;;5013109;28;20061;-86
2021/07/20 09:07:59;;;;;;;11.85;6.70;;;23.90;99.90;;;;;;5012659;28;20041;-86
2021/07/20 09:10:31;;;;;;;12.70;6.75;;;23.80;99.90;;;;;;5013115;28;20045;-86
2021/07/20 09:12:57;;;;;;;10.13;6.57;;;23.80;99.90;;;;;;5012851;28;20384;-86
2021/07/20 09:15:25;;;;;;;12.80;6.90;;;23.80;99.90;;;;;;5011355;28;20017;-86
2021/07/20 09:18:04;;;;;;;11.30;6.35;;;23.90;99.90;;;;;;5013033;28;20029;-86
2021/07/20 09:20:34;;;;;;;14.05;6.13;;;24.00;99.90;;;;;;5012104;28;20445;-86
2021/07/20 09:23:26;;;;;;;11.10;6.32;;;24.10;99.90;;;;;;5011753;28;20029;-87
2021/07/20 09:25:52;;;;;;;10.15;6.00;;;24.20;99.90;;;;;;5012689;28;20041;-87
2021/07/20 09:28:37;;;;;;;10.75;6.25;;;24.20;99.90;;;;;;5012687;28;20640;-87
2021/07/20 09:31:11;;;;;;;13.27;5.97;;;24.40;99.90;;;;;;5012332;28;20038;-87
2021/07/20 09:33:58;;;;;;;10.40;6.18;;;24.30;99.90;;;;;;5012269;28;20113;-87
2021/07/20 09:36:28;;;;;;;12.35;6.40;;;24.40;99.90;;;;;;5012495;28;20060;-86
2021/07/20 09:39:32;;;;;;;10.32;6.25;;;24.30;99.90;;;;;;5009257;28;20423;-87
2021/07/20 09:42:26;;;;;;;15.10;6.95;;;24.30;99.90;;;;;;5009258;28;20038;-87
2021/07/20 09:45:10;;;;;;;13.77;6.55;;;24.60;99.90;;;;;;5013460;28;20026;-86
2021/07/20 09:47:58;;;;;;;8.80;6.03;;;25.00;99.90;;;;;;5027528;28;20423;-87
2021/07/20 09:50:26;;;;;;;8.70;5.90;;;25.10;99.90;;;;;;5012588;28;20030;-87
2021/07/20 09:53:19;;;;;;;9.95;5.93;;;25.30;99.90;;;;;;5012465;28;20109;-87
2021/07/20 09:56:12;;;;;;;10.60;6.25;;;25.30;99.90;;;;;;5012567;28;20083;-87
2021/07/20 09:58:57;;;;;;;8.80;5.93;;;25.10;99.90;;;;;;5012323;28;20026;-87
2021/07/20 10:01:45;;;;;;;10.23;5.88;;;25.30;99.90;;;;;;5012096;28;20311;-87
2021/07/20 10:04:25;;;;;;;9.98;5.82;;;25.40;99.90;;;;;;5011954;28;20100;-87
2021/07/20 10:07:03;;;;;;;8.50;5.90;;;25.60;99.90;;;;;;5011974;28;20180;-86
2021/07/20 10:09:54;;;;;;;15.18;6.13;;;25.40;99.90;;;;;;4996719;28;20029;-87
2021/07/20 10:12:52;;;;;;;10.02;6.47;;;25.50;99.90;;;;;;5011224;28;20026;-88
2021/07/20 10:15:29;;;;;;;12.48;6.82;;;25.60;99.90;;;;;;5009262;28;20045;-87
2021/07/20 10:18:06;;;;;;;10.13;6.50;;;25.40;99.90;;;;;;5008411;28;20382;-87
2021/07/20 10:20:55;;;;;;;10.68;6.15;;;25.50;99.90;;;;;;5011562;28;20034;-87
2021/07/20 10:23:24;;;;;;;10.52;6.20;;;25.70;99.90;;;;;;5011482;28;20022;-87
2021/07/20 10:26:02;;;;;;;11.63;6.40;;;25.80;99.90;;;;;;5011696;28;20569;-87
2021/07/20 10:28:43;;;;;;;9.82;6.47;;;25.90;99.90;;;;;;5026446;28;20033;-87
2021/07/20 10:31:37;;;;;;;9.95;6.25;;;26.20;99.90;;;;;;5014803;28;20081;-88
2021/07/20 10:34:07;;;;;;;8.93;6.13;;;25.90;99.90;;;;;;4956962;28;20039;-88
2021/07/20 10:37:07;;;;;;;13.77;7.10;;;26.00;99.90;;;;;;4954740;28;20027;-88
2021/07/20 10:40:03;;;;;;;10.55;6.63;;;26.30;99.90;;;;;;4950607;28;20054;-88
2021/07/20 10:43:00;;;;;;;11.52;6.97;;;26.50;99.90;;;;;;4949995;28;20110;-88
2021/07/20 10:45:33;;;;;;;12.45;6.45;;;26.20;99.90;;;;;;4935352;28;20122;-88
2021/07/20 10:48:13;;;;;;;10.13;6.38;;;26.40;99.90;;;;;;4955397;28;20042;-88
2021/07/20 10:50:55;;;;;;;9.63;6.30;;;26.50;99.90;;;;;;4954344;28;20043;-88
2021/07/20 10:53:50;;;;;;;11.25;6.57;;;26.60;99.90;;;;;;4955190;28;20031;-88
2021/07/20 10:56:23;;;;;;;10.68;7.25;;;26.80;99.90;;;;;;4951514;28;20184;-89
2021/07/20 10:58:53;;;;;;;10.18;6.75;;;26.80;99.90;;;;;;4946340;28;20214;-86
2021/07/20 11:01:24;;;;;;;10.13;7.15;;;26.80;99.90;;;;;;4946375;29;20500;-87
2021/07/20 11:04:30;;;;;;;9.82;6.35;;;26.50;99.90;;;;;;4943056;28;20043;-88
2021/07/20 11:06:56;;;;;;;12.40;6.50;;;26.70;99.90;;;;;;4945224;29;20031;-88
2021/07/20 11:09:23;;;;;;;11.70;6.18;;;26.90;99.90;;;;;;4933868;29;20043;-88
2021/07/20 11:11:55;;;;;;;10.30;6.28;;;27.10;99.90;;;;;;4999457;28;20038;-88
2021/07/20 11:14:27;;;;;;;10.48;6.53;;;27.00;99.90;;;;;;5009086;28;20398;-88
2021/07/20 11:16:55;;;;;;;12.27;6.70;;;27.30;99.90;;;;;;5009198;28;20036;-88
2021/07/20 11:19:24;;;;;;;9.73;6.82;;;27.40;99.90;;;;;;5003764;28;20034;-88
2021/07/20 11:21:50;;;;;;;12.40;6.63;;;27.60;99.90;;;;;;5007037;28;20076;-88
2021/07/20 11:24:18;;;;;;;10.95;6.60;;;27.70;99.90;;;;;;5010390;28;20057;-88
2021/07/20 11:26:44;;;;;;;7.82;6.10;;;27.60;99.90;;;;;;5012484;28;20516;-88
2021/07/20 11:29:11;;;;;;;10.98;6.40;;;27.80;99.90;;;;;;5000274;28;20040;-87
2021/07/20 11:31:51;;;;;;;8.90;7.03;;;27.80;99.90;;;;;;5004661;28;20030;-88
2021/07/20 11:34:26;;;;;;;14.32;6.22;;;27.70;99.90;;;;;;5004996;28;20026;-88
2021/07/20 11:36:57;;;;;;;11.82;6.15;;;27.70;99.90;;;;;;5007325;28;20032;-91
2021/07/20 11:39:27;;;;;;;9.00;5.82;;;28.20;99.90;;;;;;5011803;28;20037;-91
2021/07/20 11:42:00;;;;;;;9.00;5.90;;;28.40;99.90;;;;;;5015195;28;20300;-92
2021/07/20 11:44:40;;;;;;;10.15;6.35;;;28.90;99.90;;;;;;5014977;28;20029;-92
2021/07/20 11:47:11;;;;;;;9.52;6.13;;;29.40;99.90;;;;;;5014823;28;20045;-92
2021/07/20 11:50:03;;;;;;;11.30;6.28;;;29.90;99.90;;;;;;5014749;28;20046;-92
2021/07/20 11:52:46;;;;;;;10.68;6.32;;;32.40;99.90;;;;;;5014968;28;20504;-92
2021/07/20 11:55:43;;;;;;;9.80;6.15;;;35.30;99.90;;;;;;5014591;28;20030;-92
2021/07/20 11:58:21;;;;;;;9.98;5.70;;;36.80;99.90;;;;;;5014280;28;20364;-92
2021/07/20 12:01:08;;;;;;;9.75;5.85;;;38.10;99.90;;;;;;5014982;28;20075;-92
2021/07/20 12:04:09;;;;;;;7.93;5.80;;;39.70;99.90;;;;;;4998650;28;20038;-92
2021/07/20 12:06:55;;;;;;;9.73;5.65;;;40.50;99.90;;;;;;5010113;28;20049;-92
2021/07/20 12:09:36;;;;;;;12.07;5.90;;;40.20;99.90;;;;;;5014413;28;20052;-92
2021/07/20 12:12:03;;;;;;;7.75;5.22;;;40.40;99.90;;;;;;5012012;28;20028;-91
2021/07/20 12:14:30;;;;;;;9.73;5.82;;;41.10;99.90;;;;;;5014783;28;20030;-92
2021/07/20 12:16:56;;;;;;;7.75;5.63;;;41.40;99.90;;;;;;5014291;28;20084;-92
2021/07/20 12:19:27;;;;;;;7.10;5.88;;;41.50;99.90;;;;;;5014106;28;20045;-92
2021/07/20 12:21:52;;;;;;;10.57;5.65;;;42.20;99.90;;;;;;5014332;28;20030;-92
2021/07/20 12:24:18;;;;;;;6.82;5.70;;;42.00;99.90;;;;;;5013993;28;20058;-94
2021/07/20 12:26:44;;;;;;;6.40;5.35;;;40.60;99.90;;;;;;5013430;28;20049;-94
2021/07/20 12:29:12;;;;;;;8.48;5.68;;;40.20;99.90;;;;;;5015300;28;20525;-90
2021/07/20 12:31:39;;;;;;;11.65;6.32;;;41.30;99.90;;;;;;5013930;28;20045;-91
2021/07/20 12:34:06;;;;;;;7.78;5.38;;;40.20;99.90;;;;;;5014183;28;20030;-91
2021/07/20 12:36:33;;;;;;;7.88;5.40;;;41.30;99.90;;;;;;5012775;28;20030;-89
2021/07/20 12:39:19;;;;;;;6.20;5.40;;;42.10;99.90;;;;;;5013905;28;20109;-89
2021/07/20 12:41:49;;;;;;;6.05;5.13;;;42.50;99.90;;;;;;5014354;28;20441;-89
2021/07/20 12:44:16;;;;;;;7.88;5.88;;;42.60;99.90;;;;;;5013994;28;20042;-90
2021/07/20 12:46:42;;;;;;;12.57;6.00;;;41.60;99.90;;;;;;5029070;28;20037;-88
2021/07/20 12:49:11;;;;;;;7.50;5.65;;;41.50;99.90;;;;;;5013272;28;20022;-88
2021/07/20 12:51:49;;;;;;;5.95;5.38;;;41.20;99.90;;;;;;5013493;28;20030;-89
2021/07/20 12:54:15;;;;;;;7.97;5.53;;;41.40;99.90;;;;;;5013660;28;20109;-88
2021/07/20 12:56:41;;;;;;;11.32;5.28;;;40.60;99.90;;;;;;5013861;28;20029;-88
2021/07/20 12:59:07;;;;;;;8.38;6.18;;;41.20;99.90;;;;;;5012962;28;20029;-88
2021/07/20 13:01:36;;;;;;;8.55;5.68;;;41.30;99.90;;;;;;5013634;28;20497;-89
2021/07/20 13:04:03;;;;;;;8.57;5.97;;;39.30;99.90;;;;;;5028199;28;20104;-89
2021/07/20 13:06:34;;;;;;;10.35;5.45;;;39.20;99.90;;;;;;5013333;28;20033;-88
2021/07/20 13:09:01;;;;;;;9.35;5.60;;;39.20;99.90;;;;;;5009641;28;20027;-88
2021/07/20 13:11:26;;;;;;;8.73;5.57;;;39.70;99.90;;;;;;5012609;28;20037;-89